Time;durP1;ratioP1;P1;durP2;ratioP2;P2;SDS_P1;SDS_P2;PMS_P1;PMS_P2;Temp;Humidity;BMP_temperature;BMP_pressure;BME280_temperature;BME280_humidity;BME280_pressure;Samples;Min_cycle;Max_cycle;Signal;HPM_P1;HPM_P2
2023/03/19 00:01:05;;;;;;;2.03;1.83;;;;;;;;;;4969314;28;20177;-79
2023/03/19 00:03:31;;;;;;;3.50;1.90;;;;;;;;;;4970883;28;20187;-79
2023/03/19 00:05:56;;;;;;;1.63;1.50;;;;;;;;;;4971103;28;20195;-79
2023/03/19 00:08:21;;;;;;;3.87;2.10;;;;;;;;;;4970714;28;20188;-79
2023/03/19 00:10:47;;;;;;;2.17;1.83;;;;;;;;;;4972404;28;20190;-79
2023/03/19 00:13:12;;;;;;;2.80;2.13;;;;;;;;;;4970879;28;20222;-79
2023/03/19 00:15:37;;;;;;;1.93;1.80;;;;;;;;;;4967462;28;20204;-79
2023/03/19 00:18:05;;;;;;;6.53;3.53;;;;;;;;;;4969669;28;20193;-79
2023/03/19 00:20:30;;;;;;;6.93;3.50;;;;;;;;;;4968787;28;20175;-79
2023/03/19 00:22:55;;;;;;;4.63;2.90;;;;;;;;;;4968319;28;20211;-79
2023/03/19 00:25:20;;;;;;;3.43;2.40;;;;;;;;;;4965845;28;20184;-79
2023/03/19 00:27:48;;;;;;;3.63;2.20;;;;;;;;;;4969160;28;20192;-79
2023/03/19 00:30:13;;;;;;;5.20;2.93;;;;;;;;;;4967536;28;20211;-79
2023/03/19 00:32:39;;;;;;;8.03;4.37;;;;;;;;;;4968449;28;20275;-79
2023/03/19 00:35:07;;;;;;;3.70;3.10;;;;;;;;;;4972623;28;20184;-79
2023/03/19 00:37:33;;;;;;;3.47;2.60;;;;;;;;;;4967616;28;20183;-79
2023/03/19 00:39:59;;;;;;;5.47;3.10;;;;;;;;;;4967651;28;20186;-79
2023/03/19 00:42:24;;;;;;;7.43;3.50;;;;;;;;;;4966928;28;20199;-79
2023/03/19 00:44:50;;;;;;;6.10;5.10;;;;;;;;;;4967203;28;20301;-79
2023/03/19 00:47:15;;;;;;;3.83;2.90;;;;;;;;;;4962054;28;20184;-79
2023/03/19 00:49:40;;;;;;;4.93;2.70;;;;;;;;;;4968894;28;20188;-79
2023/03/19 00:52:06;;;;;;;4.47;2.53;;;;;;;;;;4965367;28;20188;-79
2023/03/19 00:54:31;;;;;;;4.57;2.60;;;;;;;;;;4972705;28;20183;-79
2023/03/19 00:56:57;;;;;;;3.23;2.33;;;;;;;;;;4972567;28;20236;-79
2023/03/19 00:59:24;;;;;;;6.13;2.10;;;;;;;;;;4968666;28;20177;-79
2023/03/19 01:01:50;;;;;;;4.53;2.43;;;;;;;;;;4967396;28;20274;-79
2023/03/19 01:04:16;;;;;;;4.40;2.60;;;;;;;;;;4972839;28;20277;-79
2023/03/19 01:06:41;;;;;;;2.30;1.70;;;;;;;;;;4970855;28;20243;-79
2023/03/19 01:09:06;;;;;;;2.07;1.50;;;;;;;;;;4970183;28;20178;-79
2023/03/19 01:11:32;;;;;;;1.60;1.47;;;;;;;;;;4969833;28;20186;-79
2023/03/19 01:13:57;;;;;;;2.83;1.50;;;;;;;;;;4971648;28;20193;-79
2023/03/19 01:16:22;;;;;;;2.47;1.40;;;;;;;;;;4965050;28;20210;-79
2023/03/19 01:18:47;;;;;;;8.50;2.00;;;;;;;;;;4972251;28;20192;-79
2023/03/19 01:21:13;;;;;;;1.80;1.50;;;;;;;;;;4970121;28;20185;-79
2023/03/19 01:23:38;;;;;;;3.17;1.50;;;;;;;;;;4970127;28;20185;-79
2023/03/19 01:26:04;;;;;;;2.60;2.03;;;;;;;;;;4969741;28;20189;-79
2023/03/19 01:28:29;;;;;;;3.33;1.60;;;;;;;;;;4983371;28;20187;-79
2023/03/19 01:30:58;;;;;;;1.83;1.33;;;;;;;;;;4972407;28;20183;-79
2023/03/19 01:33:24;;;;;;;3.40;1.80;;;;;;;;;;4969059;28;20187;-79
2023/03/19 01:35:49;;;;;;;2.17;1.47;;;;;;;;;;4968284;28;20209;-79
2023/03/19 01:38:16;;;;;;;4.87;1.70;;;;;;;;;;4972064;28;20188;-79
2023/03/19 01:40:48;;;;;;;1.97;1.47;;;;;;;;;;4970232;28;20195;-79
2023/03/19 01:43:23;;;;;;;2.90;1.63;;;;;;;;;;4969842;28;20237;-79
2023/03/19 01:45:50;;;;;;;2.63;1.60;;;;;;;;;;4969596;28;20211;-79
2023/03/19 01:48:23;;;;;;;2.73;1.87;;;;;;;;;;4974054;28;20193;-79
2023/03/19 01:50:52;;;;;;;1.90;1.40;;;;;;;;;;4973766;28;20178;-79
2023/03/19 01:53:18;;;;;;;1.80;1.50;;;;;;;;;;4972957;28;20182;-79
2023/03/19 01:55:45;;;;;;;1.40;1.30;;;;;;;;;;4972050;28;20218;-79
2023/03/19 01:58:10;;;;;;;1.87;1.37;;;;;;;;;;4968900;28;20274;-79
2023/03/19 02:00:37;;;;;;;1.50;1.30;;;;;;;;;;4969624;28;20268;-79
2023/03/19 02:03:02;;;;;;;1.80;1.30;;;;;;;;;;4969673;28;20193;-79
2023/03/19 02:05:28;;;;;;;4.13;1.70;;;;;;;;;;4964225;28;20195;-79
2023/03/19 02:07:55;;;;;;;1.50;1.40;;;;;;;;;;4969554;28;20197;-79
2023/03/19 02:10:21;;;;;;;1.40;1.30;;;;;;;;;;4966135;28;20183;-79
2023/03/19 02:12:47;;;;;;;1.80;1.10;;;;;;;;;;4984011;28;20182;-79
2023/03/19 02:15:12;;;;;;;1.60;1.50;;;;;;;;;;4967804;28;20324;-79
2023/03/19 02:17:38;;;;;;;1.70;1.57;;;;;;;;;;4965816;28;20189;-79
2023/03/19 02:20:04;;;;;;;1.63;1.33;;;;;;;;;;4967216;28;20192;-79
2023/03/19 02:22:30;;;;;;;1.73;1.50;;;;;;;;;;4964867;28;20246;-79
2023/03/19 02:25:01;;;;;;;2.10;1.53;;;;;;;;;;4966258;28;20175;-79
2023/03/19 02:27:26;;;;;;;2.07;1.30;;;;;;;;;;4966262;28;20195;-79
2023/03/19 02:29:52;;;;;;;1.80;1.50;;;;;;;;;;4965568;28;20233;-79
2023/03/19 02:32:17;;;;;;;1.80;1.50;;;;;;;;;;4967305;28;20183;-79
2023/03/19 02:34:43;;;;;;;3.67;1.50;;;;;;;;;;4966707;28;20191;-79
2023/03/19 02:37:34;;;;;;;2.03;1.63;;;;;;;;;;4965184;28;20207;-79
2023/03/19 02:40:13;;;;;;;1.60;1.47;;;;;;;;;;4960269;28;20222;-79
2023/03/19 02:42:39;;;;;;;1.30;1.20;;;;;;;;;;4968750;28;20246;-79
2023/03/19 02:45:04;;;;;;;1.80;1.70;;;;;;;;;;4969125;28;20208;-79
2023/03/19 02:47:30;;;;;;;2.10;1.50;;;;;;;;;;4969876;28;20274;-79
2023/03/19 02:49:55;;;;;;;2.50;1.40;;;;;;;;;;4968829;28;20237;-79
2023/03/19 02:52:21;;;;;;;1.80;1.50;;;;;;;;;;4995882;28;20208;-79
2023/03/19 02:54:47;;;;;;;2.53;1.47;;;;;;;;;;4974335;28;20186;-79
2023/03/19 02:57:12;;;;;;;1.70;1.40;;;;;;;;;;4973194;28;20275;-79
2023/03/19 02:59:38;;;;;;;1.33;1.23;;;;;;;;;;4972274;28;20181;-79
2023/03/19 03:02:03;;;;;;;2.03;1.50;;;;;;;;;;4971584;28;20182;-81
2023/03/19 03:04:29;;;;;;;2.10;1.60;;;;;;;;;;4975563;28;20174;-81
2023/03/19 03:06:55;;;;;;;1.60;1.50;;;;;;;;;;4973512;28;20188;-81
2023/03/19 03:09:20;;;;;;;11.63;4.53;;;;;;;;;;4968132;28;20193;-81
2023/03/19 03:11:45;;;;;;;7.23;3.77;;;;;;;;;;4977274;28;20247;-81
2023/03/19 03:14:11;;;;;;;2.00;1.70;;;;;;;;;;4969888;28;20192;-79
2023/03/19 03:16:36;;;;;;;1.53;1.33;;;;;;;;;;4972951;28;20217;-79
2023/03/19 03:19:02;;;;;;;2.37;1.40;;;;;;;;;;4989224;28;20185;-79
2023/03/19 03:21:28;;;;;;;3.03;1.73;;;;;;;;;;4969957;28;20208;-79
2023/03/19 03:23:53;;;;;;;1.90;1.70;;;;;;;;;;4972531;28;20181;-79
2023/03/19 03:26:18;;;;;;;2.97;1.70;;;;;;;;;;4991296;28;20204;-79
2023/03/19 03:28:44;;;;;;;1.93;1.40;;;;;;;;;;4987565;28;20177;-79
2023/03/19 03:31:09;;;;;;;1.80;1.50;;;;;;;;;;4987804;28;20219;-79
2023/03/19 03:33:35;;;;;;;1.80;1.70;;;;;;;;;;4989132;28;20186;-79
2023/03/19 03:36:00;;;;;;;1.73;1.50;;;;;;;;;;4973427;28;20205;-79
2023/03/19 03:38:26;;;;;;;2.23;1.63;;;;;;;;;;4973309;28;20189;-79
2023/03/19 03:40:51;;;;;;;2.93;1.70;;;;;;;;;;4971525;28;20241;-79
2023/03/19 03:43:18;;;;;;;1.90;1.43;;;;;;;;;;4970545;28;20238;-79
2023/03/19 03:45:44;;;;;;;2.20;1.93;;;;;;;;;;4969739;28;20184;-79
2023/03/19 03:48:09;;;;;;;3.03;1.47;;;;;;;;;;4974564;28;20405;-79
2023/03/19 03:50:35;;;;;;;1.70;1.60;;;;;;;;;;4972386;28;20216;-79
2023/03/19 03:53:00;;;;;;;1.80;1.60;;;;;;;;;;4989479;28;20209;-79
2023/03/19 03:55:27;;;;;;;3.67;1.73;;;;;;;;;;4968926;28;20195;-78
2023/03/19 03:57:52;;;;;;;3.00;1.67;;;;;;;;;;4972766;28;20174;-78
2023/03/19 04:00:18;;;;;;;2.73;1.90;;;;;;;;;;4970459;28;20193;-78
2023/03/19 04:02:43;;;;;;;2.80;1.50;;;;;;;;;;4973649;28;20185;-78
2023/03/19 04:05:08;;;;;;;2.13;1.60;;;;;;;;;;4977977;28;20182;-78
2023/03/19 04:07:35;;;;;;;1.73;1.60;;;;;;;;;;4986639;28;20198;-78
2023/03/19 04:10:01;;;;;;;1.63;1.50;;;;;;;;;;4976941;28;20204;-78
2023/03/19 04:12:27;;;;;;;3.53;1.50;;;;;;;;;;4977517;28;20187;-78
2023/03/19 04:14:52;;;;;;;5.73;1.83;;;;;;;;;;4990652;28;20189;-78
2023/03/19 04:17:17;;;;;;;4.27;1.83;;;;;;;;;;4991006;28;20219;-78
2023/03/19 04:19:42;;;;;;;2.43;1.70;;;;;;;;;;4971503;28;20181;-78
2023/03/19 04:22:08;;;;;;;3.30;1.70;;;;;;;;;;4982347;28;20181;-78
2023/03/19 04:24:33;;;;;;;1.60;1.50;;;;;;;;;;4978227;28;20190;-78
2023/03/19 04:26:58;;;;;;;1.83;1.67;;;;;;;;;;4976530;28;20187;-78
2023/03/19 04:29:24;;;;;;;1.60;1.47;;;;;;;;;;4984867;28;20340;-78
2023/03/19 04:31:50;;;;;;;2.67;1.70;;;;;;;;;;4971114;28;20186;-78
2023/03/19 04:34:16;;;;;;;2.47;1.60;;;;;;;;;;4973071;28;20182;-78
2023/03/19 04:36:41;;;;;;;3.93;1.70;;;;;;;;;;4971414;28;20201;-80
2023/03/19 04:39:07;;;;;;;3.20;1.40;;;;;;;;;;4974427;28;20271;-80
2023/03/19 04:41:32;;;;;;;2.73;1.73;;;;;;;;;;4989143;28;20186;-80
2023/03/19 04:43:57;;;;;;;2.63;1.80;;;;;;;;;;4956825;28;20237;-80
2023/03/19 04:46:22;;;;;;;1.80;1.43;;;;;;;;;;4949857;28;20197;-80
2023/03/19 04:48:47;;;;;;;2.97;1.60;;;;;;;;;;4947412;28;20173;-80
2023/03/19 04:51:13;;;;;;;1.80;1.67;;;;;;;;;;4948217;28;20234;-80
2023/03/19 04:53:39;;;;;;;2.20;1.57;;;;;;;;;;4952013;28;20209;-80
2023/03/19 04:56:05;;;;;;;2.93;1.50;;;;;;;;;;4955038;28;20202;-80
2023/03/19 04:58:31;;;;;;;2.60;1.30;;;;;;;;;;4952311;28;20190;-80
2023/03/19 05:00:56;;;;;;;2.33;1.80;;;;;;;;;;4955283;28;20184;-80
2023/03/19 05:03:21;;;;;;;3.03;1.53;;;;;;;;;;4955263;28;20250;-80
2023/03/19 05:05:46;;;;;;;2.23;1.77;;;;;;;;;;4953149;28;20198;-80
2023/03/19 05:08:12;;;;;;;1.60;1.40;;;;;;;;;;4952669;28;20216;-80
2023/03/19 05:10:38;;;;;;;2.97;1.70;;;;;;;;;;4952011;28;20259;-80
2023/03/19 05:13:03;;;;;;;2.93;1.47;;;;;;;;;;4948940;28;20184;-80
2023/03/19 05:15:28;;;;;;;1.53;1.43;;;;;;;;;;4950281;28;20242;-80
2023/03/19 05:17:54;;;;;;;2.83;1.53;;;;;;;;;;4951413;28;20214;-80
2023/03/19 05:20:22;;;;;;;2.87;1.60;;;;;;;;;;4954352;28;20206;-80
2023/03/19 05:22:48;;;;;;;1.70;1.50;;;;;;;;;;4953307;28;20213;-80
2023/03/19 05:25:13;;;;;;;3.10;1.93;;;;;;;;;;4947770;28;20204;-80
2023/03/19 05:27:39;;;;;;;2.30;1.53;;;;;;;;;;4949028;28;20190;-80
2023/03/19 05:30:04;;;;;;;2.77;1.40;;;;;;;;;;4951247;28;20182;-80
2023/03/19 05:32:30;;;;;;;3.23;1.30;;;;;;;;;;4951197;28;20179;-80
2023/03/19 05:34:55;;;;;;;3.57;1.70;;;;;;;;;;4952535;28;20193;-80
2023/03/19 05:37:20;;;;;;;2.73;1.47;;;;;;;;;;4951087;28;20246;-80
2023/03/19 05:39:46;;;;;;;1.73;1.63;;;;;;;;;;4951476;28;20178;-80
2023/03/19 05:42:11;;;;;;;2.43;1.67;;;;;;;;;;4952397;28;20226;-80
2023/03/19 05:44:36;;;;;;;6.63;3.43;;;;;;;;;;4966545;28;20221;-80
2023/03/19 05:47:02;;;;;;;131.80;54.13;;;;;;;;;;4974861;28;20201;-80
2023/03/19 05:49:27;;;;;;;16.47;10.13;;;;;;;;;;4970638;28;20182;-80
2023/03/19 05:51:52;;;;;;;16.20;10.20;;;;;;;;;;4972386;28;20190;-80
2023/03/19 05:54:18;;;;;;;5.87;4.90;;;;;;;;;;4971229;28;20179;-80
2023/03/19 05:56:43;;;;;;;10.70;7.50;;;;;;;;;;4971190;28;20307;-80
2023/03/19 05:59:08;;;;;;;4.87;4.07;;;;;;;;;;4968792;28;20178;-80
2023/03/19 06:01:34;;;;;;;2.63;2.17;;;;;;;;;;4970167;28;20209;-80
2023/03/19 06:03:59;;;;;;;4.47;3.10;;;;;;;;;;4971817;28;20202;-80
2023/03/19 06:06:25;;;;;;;2.30;2.10;;;;;;;;;;4970301;28;20186;-80
2023/03/19 06:08:51;;;;;;;2.40;2.20;;;;;;;;;;4967090;28;20248;-80
2023/03/19 06:11:16;;;;;;;4.07;2.40;;;;;;;;;;4966423;28;20193;-80
2023/03/19 06:13:42;;;;;;;5.03;1.70;;;;;;;;;;4966529;28;20181;-81
2023/03/19 06:16:08;;;;;;;2.30;2.10;;;;;;;;;;4965832;28;20217;-80
2023/03/19 06:18:33;;;;;;;1.83;1.67;;;;;;;;;;4965920;28;20271;-80
2023/03/19 06:20:58;;;;;;;2.43;1.87;;;;;;;;;;4971335;28;20228;-80
2023/03/19 06:23:23;;;;;;;3.00;1.60;;;;;;;;;;4969296;28;20189;-80
2023/03/19 06:25:49;;;;;;;2.07;1.70;;;;;;;;;;4965325;28;20188;-80
2023/03/19 06:28:14;;;;;;;3.00;1.93;;;;;;;;;;4968889;28;20177;-80
2023/03/19 06:30:39;;;;;;;1.77;1.67;;;;;;;;;;4968697;28;20224;-80
2023/03/19 06:33:05;;;;;;;2.17;1.80;;;;;;;;;;4969713;28;20207;-80
2023/03/19 06:35:31;;;;;;;4.07;1.90;;;;;;;;;;4968217;28;20507;-80
2023/03/19 06:37:56;;;;;;;2.30;1.67;;;;;;;;;;4970423;28;20182;-80
2023/03/19 06:40:21;;;;;;;2.50;1.87;;;;;;;;;;4970927;28;20221;-80
2023/03/19 06:42:47;;;;;;;1.50;1.40;;;;;;;;;;4969963;28;20204;-81
2023/03/19 06:45:15;;;;;;;2.10;1.90;;;;;;;;;;4971421;28;20240;-80
2023/03/19 06:47:42;;;;;;;2.60;1.80;;;;;;;;;;4973248;28;20271;-81
2023/03/19 06:50:08;;;;;;;1.70;1.60;;;;;;;;;;4969016;28;20184;-80
2023/03/19 06:52:33;;;;;;;2.37;1.70;;;;;;;;;;4975024;28;20248;-80
2023/03/19 06:54:59;;;;;;;4.90;4.50;;;;;;;;;;4976636;28;20269;-80
2023/03/19 06:57:24;;;;;;;5.73;5.17;;;;;;;;;;4973471;28;20232;-80
2023/03/19 06:59:49;;;;;;;3.50;1.90;;;;;;;;;;4972795;28;20203;-81
2023/03/19 07:02:15;;;;;;;3.67;2.17;;;;;;;;;;4972695;28;20176;-80
2023/03/19 07:04:41;;;;;;;3.67;1.90;;;;;;;;;;4971397;28;20244;-81
2023/03/19 07:07:06;;;;;;;2.80;2.60;;;;;;;;;;4974691;28;20179;-81
2023/03/19 07:09:31;;;;;;;3.70;3.40;;;;;;;;;;4978591;28;20177;-81
2023/03/19 07:11:56;;;;;;;3.23;3.03;;;;;;;;;;4970894;28;20263;-81
2023/03/19 07:14:22;;;;;;;1.77;1.67;;;;;;;;;;4970551;28;20214;-80
2023/03/19 07:16:47;;;;;;;4.70;2.00;;;;;;;;;;4974460;28;20209;-80
2023/03/19 07:19:13;;;;;;;3.93;2.47;;;;;;;;;;4976033;28;20239;-81
2023/03/19 07:21:38;;;;;;;2.83;2.63;;;;;;;;;;4973888;28;20180;-81
2023/03/19 07:24:03;;;;;;;2.50;2.20;;;;;;;;;;4978594;28;20173;-80
2023/03/19 07:26:29;;;;;;;3.07;2.13;;;;;;;;;;4972949;28;20196;-81
2023/03/19 07:28:54;;;;;;;4.13;3.43;;;;;;;;;;4975602;28;20186;-81
2023/03/19 07:31:20;;;;;;;3.20;1.87;;;;;;;;;;4967166;28;20187;-81
2023/03/19 07:33:45;;;;;;;2.40;2.07;;;;;;;;;;4975504;28;20182;-81
2023/03/19 07:36:11;;;;;;;2.40;2.03;;;;;;;;;;4971106;28;20211;-79
2023/03/19 07:38:36;;;;;;;2.43;1.70;;;;;;;;;;4981999;28;20189;-79
2023/03/19 07:41:01;;;;;;;2.03;1.83;;;;;;;;;;4988686;28;20273;-79
2023/03/19 07:43:26;;;;;;;3.53;1.93;;;;;;;;;;4972644;28;20232;-79
2023/03/19 07:45:52;;;;;;;4.23;2.10;;;;;;;;;;4977565;28;20237;-80
2023/03/19 07:48:17;;;;;;;2.57;1.83;;;;;;;;;;4969567;28;20238;-79
2023/03/19 07:50:43;;;;;;;2.20;1.73;;;;;;;;;;4977024;28;20179;-79
2023/03/19 07:53:08;;;;;;;2.97;1.97;;;;;;;;;;4973425;28;20183;-79
2023/03/19 07:55:33;;;;;;;2.90;1.83;;;;;;;;;;4976169;28;20175;-79
2023/03/19 07:57:59;;;;;;;2.10;1.90;;;;;;;;;;4973918;28;20183;-79
2023/03/19 08:00:24;;;;;;;3.13;2.40;;;;;;;;;;4975226;28;20186;-79
2023/03/19 08:02:49;;;;;;;5.27;3.53;;;;;;;;;;4968610;28;20180;-79
2023/03/19 08:05:15;;;;;;;2.20;2.00;;;;;;;;;;4974082;28;20248;-79
2023/03/19 08:07:40;;;;;;;3.87;2.30;;;;;;;;;;4968594;28;20187;-80
2023/03/19 08:10:06;;;;;;;2.50;1.93;;;;;;;;;;4973436;28;20204;-79
2023/03/19 08:12:33;;;;;;;5.77;2.83;;;;;;;;;;4977819;28;20218;-80
2023/03/19 08:14:58;;;;;;;5.33;4.00;;;;;;;;;;4974243;28;20183;-80
2023/03/19 08:17:23;;;;;;;7.57;6.57;;;;;;;;;;4967715;28;20209;-79
2023/03/19 08:19:51;;;;;;;5.77;2.90;;;;;;;;;;4976020;28;20172;-79
2023/03/19 08:22:17;;;;;;;8.23;6.47;;;;;;;;;;4975023;28;20184;-80
2023/03/19 08:24:42;;;;;;;6.13;4.70;;;;;;;;;;4972647;28;20195;-80
2023/03/19 08:27:07;;;;;;;18.67;12.10;;;;;;;;;;4974751;28;20206;-80
2023/03/19 08:29:32;;;;;;;3.13;2.60;;;;;;;;;;4971844;28;20194;-80
2023/03/19 08:31:59;;;;;;;5.27;3.70;;;;;;;;;;4969291;28;20180;-80
2023/03/19 08:34:25;;;;;;;6.40;5.70;;;;;;;;;;4967109;28;20184;-80
2023/03/19 08:36:51;;;;;;;4.13;2.23;;;;;;;;;;4970211;28;20204;-81
2023/03/19 08:39:16;;;;;;;2.60;2.40;;;;;;;;;;4971037;28;20183;-81
2023/03/19 08:41:41;;;;;;;3.70;2.33;;;;;;;;;;4972608;28;20240;-81
2023/03/19 08:44:06;;;;;;;3.67;2.47;;;;;;;;;;4972678;28;20343;-81
2023/03/19 08:46:32;;;;;;;2.60;2.40;;;;;;;;;;4977071;28;20183;-82
2023/03/19 08:48:57;;;;;;;3.77;2.50;;;;;;;;;;4974485;28;20196;-82
2023/03/19 08:51:24;;;;;;;7.60;3.00;;;;;;;;;;4973126;28;20188;-82
2023/03/19 08:53:50;;;;;;;2.40;2.20;;;;;;;;;;4971954;28;20190;-82
2023/03/19 08:56:15;;;;;;;2.63;2.40;;;;;;;;;;4966070;28;20219;-81
2023/03/19 08:58:41;;;;;;;2.50;2.30;;;;;;;;;;4974433;28;20176;-82
2023/03/19 09:01:09;;;;;;;2.83;1.90;;;;;;;;;;4982020;28;20187;-82
2023/03/19 09:03:34;;;;;;;2.80;2.30;;;;;;;;;;4973584;28;20185;-82
2023/03/19 09:06:04;;;;;;;16.90;3.97;;;;;;;;;;4972601;28;20181;-82
2023/03/19 09:08:30;;;;;;;6.63;1.93;;;;;;;;;;4986173;28;20188;-82
2023/03/19 09:10:55;;;;;;;2.90;2.00;;;;;;;;;;4973584;28;20195;-81
2023/03/19 09:13:20;;;;;;;2.13;1.93;;;;;;;;;;4971456;28;20201;-82
2023/03/19 09:15:46;;;;;;;2.67;1.90;;;;;;;;;;4972093;28;20231;-83
2023/03/19 09:18:11;;;;;;;2.77;2.10;;;;;;;;;;4972490;28;20184;-82
2023/03/19 09:20:36;;;;;;;3.63;2.47;;;;;;;;;;4972975;28;20187;-82
2023/03/19 09:23:01;;;;;;;4.97;2.43;;;;;;;;;;4970583;28;20191;-82
2023/03/19 09:25:27;;;;;;;3.90;2.23;;;;;;;;;;4969157;28;20197;-82
2023/03/19 09:27:52;;;;;;;6.10;2.33;;;;;;;;;;4974723;28;20287;-82
2023/03/19 09:30:17;;;;;;;3.77;2.10;;;;;;;;;;4972910;28;20178;-82
2023/03/19 09:32:42;;;;;;;4.80;2.53;;;;;;;;;;4973080;28;20176;-82
2023/03/19 09:35:08;;;;;;;2.27;2.07;;;;;;;;;;4973956;28;20177;-82
2023/03/19 09:37:33;;;;;;;3.47;2.10;;;;;;;;;;4971827;28;20295;-82
2023/03/19 09:39:58;;;;;;;3.17;2.37;;;;;;;;;;4971757;28;20186;-82
2023/03/19 09:42:30;;;;;;;4.27;2.33;;;;;;;;;;4973071;28;20271;-82
2023/03/19 09:44:55;;;;;;;3.87;2.20;;;;;;;;;;4972245;28;20239;-82
2023/03/19 09:47:30;;;;;;;3.03;2.30;;;;;;;;;;4972671;28;20204;-82
2023/03/19 09:49:57;;;;;;;3.43;2.20;;;;;;;;;;4975723;28;20269;-82
2023/03/19 09:52:48;;;;;;;3.13;2.20;;;;;;;;;;4973236;28;20189;-82
2023/03/19 09:55:26;;;;;;;3.10;2.20;;;;;;;;;;4967149;28;20283;-82
2023/03/19 09:57:54;;;;;;;4.40;2.03;;;;;;;;;;4972936;28;20189;-82
2023/03/19 10:00:21;;;;;;;3.17;2.33;;;;;;;;;;4973560;28;20173;-82
2023/03/19 10:02:49;;;;;;;3.13;2.07;;;;;;;;;;4976053;28;20174;-83
2023/03/19 10:05:18;;;;;;;3.20;2.37;;;;;;;;;;4974503;28;20174;-82
2023/03/19 10:07:55;;;;;;;2.20;2.00;;;;;;;;;;4971797;28;20184;-82
2023/03/19 10:10:21;;;;;;;5.83;2.83;;;;;;;;;;4971542;28;20217;-82
2023/03/19 10:13:06;;;;;;;4.03;2.63;;;;;;;;;;4971340;28;20192;-82
2023/03/19 10:15:33;;;;;;;4.07;2.47;;;;;;;;;;4977439;28;20185;-82
2023/03/19 10:18:04;;;;;;;2.40;2.20;;;;;;;;;;4986940;28;20182;-83
2023/03/19 10:20:37;;;;;;;2.67;2.03;;;;;;;;;;4989696;28;20240;-82
2023/03/19 10:23:18;;;;;;;6.13;3.43;;;;;;;;;;4970137;28;20233;-82
2023/03/19 10:25:44;;;;;;;12.43;7.10;;;;;;;;;;4969044;28;20228;-83
2023/03/19 10:28:17;;;;;;;23.03;8.60;;;;;;;;;;4975628;28;20177;-82
2023/03/19 10:30:47;;;;;;;3.57;2.13;;;;;;;;;;4970821;28;20182;-82
2023/03/19 10:33:12;;;;;;;10.33;5.27;;;;;;;;;;4971892;28;20206;-83
2023/03/19 10:35:42;;;;;;;4.57;3.00;;;;;;;;;;4972357;28;20209;-82
2023/03/19 10:38:18;;;;;;;2.83;2.10;;;;;;;;;;4971792;28;20266;-82
2023/03/19 10:40:50;;;;;;;21.93;11.77;;;;;;;;;;4966204;28;20230;-83
2023/03/19 10:43:16;;;;;;;5.00;2.20;;;;;;;;;;4970000;28;20280;-83
2023/03/19 10:45:41;;;;;;;6.23;2.20;;;;;;;;;;4972092;28;20184;-83
2023/03/19 10:48:11;;;;;;;2.33;2.10;;;;;;;;;;4967727;28;20187;-82
2023/03/19 10:50:40;;;;;;;3.17;2.20;;;;;;;;;;4971637;28;20175;-83
2023/03/19 10:53:11;;;;;;;2.17;1.77;;;;;;;;;;4971861;28;20181;-83
2023/03/19 10:55:37;;;;;;;4.30;1.93;;;;;;;;;;4971498;28;20200;-83
2023/03/19 10:58:04;;;;;;;9.00;5.50;;;;;;;;;;4971970;28;20194;-83
2023/03/19 11:00:34;;;;;;;16.10;8.70;;;;;;;;;;4971205;28;20191;-83
2023/03/19 11:03:03;;;;;;;3.70;2.10;;;;;;;;;;4971338;28;20203;-83
2023/03/19 11:05:29;;;;;;;2.83;2.50;;;;;;;;;;4971747;28;20204;-83
2023/03/19 11:08:02;;;;;;;2.13;1.83;;;;;;;;;;4976223;28;20278;-83
2023/03/19 11:10:29;;;;;;;2.07;1.70;;;;;;;;;;4973279;28;20195;-83
2023/03/19 11:13:18;;;;;;;3.03;2.33;;;;;;;;;;4972617;28;20217;-83
2023/03/19 11:15:45;;;;;;;3.23;1.87;;;;;;;;;;4962285;28;20195;-83
2023/03/19 11:18:18;;;;;;;2.73;1.67;;;;;;;;;;4966500;28;20208;-83
2023/03/19 11:20:48;;;;;;;6.37;4.57;;;;;;;;;;4970217;28;20184;-83
2023/03/19 11:23:15;;;;;;;3.87;1.97;;;;;;;;;;4971834;28;20191;-83
2023/03/19 11:25:45;;;;;;;3.23;2.23;;;;;;;;;;4966449;28;20184;-82
2023/03/19 11:28:13;;;;;;;3.60;2.07;;;;;;;;;;4970436;28;20188;-83
2023/03/19 11:30:57;;;;;;;4.93;2.50;;;;;;;;;;4973826;28;20191;-83
2023/03/19 11:33:37;;;;;;;3.70;1.93;;;;;;;;;;4969214;28;20196;-83
2023/03/19 11:36:05;;;;;;;2.77;1.93;;;;;;;;;;4967247;28;20212;-83
2023/03/19 11:38:33;;;;;;;4.00;2.40;;;;;;;;;;4972998;28;20181;-83
2023/03/19 11:41:19;;;;;;;1.93;1.40;;;;;;;;;;4970326;28;20251;-83
2023/03/19 11:43:50;;;;;;;3.30;2.37;;;;;;;;;;4965330;28;20255;-83
2023/03/19 11:46:22;;;;;;;3.33;2.40;;;;;;;;;;4969858;28;20196;-83
2023/03/19 11:48:57;;;;;;;6.93;2.27;;;;;;;;;;4969648;28;20346;-83
2023/03/19 11:51:28;;;;;;;2.03;1.83;;;;;;;;;;4972211;28;20191;-83
2023/03/19 11:54:12;;;;;;;3.33;2.03;;;;;;;;;;4969822;28;20202;-84
2023/03/19 11:56:37;;;;;;;4.27;2.17;;;;;;;;;;4985628;28;20288;-83
2023/03/19 11:59:22;;;;;;;3.10;2.37;;;;;;;;;;4972112;28;20275;-82
2023/03/19 12:02:00;;;;;;;3.60;2.63;;;;;;;;;;4965756;28;20247;-83
2023/03/19 12:04:28;;;;;;;3.93;2.30;;;;;;;;;;4981783;28;20197;-84
2023/03/19 12:07:02;;;;;;;3.03;2.10;;;;;;;;;;4966642;28;20180;-83
2023/03/19 12:09:34;;;;;;;2.00;1.87;;;;;;;;;;4971924;28;20206;-83
2023/03/19 12:12:08;;;;;;;2.27;2.13;;;;;;;;;;4970549;28;20181;-83
2023/03/19 12:14:56;;;;;;;3.37;2.40;;;;;;;;;;4970482;28;20241;-83
2023/03/19 12:17:21;;;;;;;4.33;2.13;;;;;;;;;;4969211;28;20217;-83
2023/03/19 12:20:00;;;;;;;5.07;2.90;;;;;;;;;;4971718;28;20187;-83
2023/03/19 12:22:32;;;;;;;2.90;1.83;;;;;;;;;;4969508;28;20194;-83
2023/03/19 12:24:57;;;;;;;2.00;1.80;;;;;;;;;;4978333;28;20187;-83
2023/03/19 12:27:41;;;;;;;4.23;2.63;;;;;;;;;;4972999;28;20193;-83
2023/03/19 12:30:25;;;;;;;1.87;1.77;;;;;;;;;;4974282;28;20272;-84
2023/03/19 12:33:02;;;;;;;5.87;2.63;;;;;;;;;;4973387;28;20212;-83
2023/03/19 12:35:34;;;;;;;3.73;1.93;;;;;;;;;;4975888;28;20196;-83
2023/03/19 12:38:04;;;;;;;5.73;2.47;;;;;;;;;;4973801;28;20190;-83
2023/03/19 12:40:40;;;;;;;4.17;2.03;;;;;;;;;;4974809;28;20187;-83
2023/03/19 12:43:12;;;;;;;4.63;2.00;;;;;;;;;;4972959;28;20229;-84
2023/03/19 12:45:41;;;;;;;3.43;1.90;;;;;;;;;;4972999;28;20180;-84
2023/03/19 12:48:09;;;;;;;1.80;1.70;;;;;;;;;;4968035;28;20323;-84
2023/03/19 12:50:36;;;;;;;4.27;2.10;;;;;;;;;;4973964;28;20184;-84
2023/03/19 12:53:04;;;;;;;2.63;2.00;;;;;;;;;;4977622;28;20281;-84
2023/03/19 12:55:35;;;;;;;4.37;2.27;;;;;;;;;;4971547;28;20181;-84
2023/03/19 12:58:03;;;;;;;4.33;2.00;;;;;;;;;;4974076;28;20199;-83
2023/03/19 13:00:37;;;;;;;2.57;1.90;;;;;;;;;;4973272;28;20204;-83
2023/03/19 13:03:09;;;;;;;2.77;2.37;;;;;;;;;;4968322;28;20203;-83
2023/03/19 13:05:37;;;;;;;2.60;2.00;;;;;;;;;;4973206;28;20229;-83
2023/03/19 13:08:22;;;;;;;2.63;2.30;;;;;;;;;;4974182;28;20203;-84
2023/03/19 13:10:47;;;;;;;2.07;1.87;;;;;;;;;;4976801;28;20226;-83
2023/03/19 13:13:22;;;;;;;22.47;16.23;;;;;;;;;;4982896;28;20273;-84
2023/03/19 13:15:49;;;;;;;9.93;7.50;;;;;;;;;;4983228;28;20185;-80
2023/03/19 13:18:30;;;;;;;7.93;4.17;;;;;;;;;;4967968;28;20176;-80
2023/03/19 13:21:03;;;;;;;3.27;2.47;;;;;;;;;;4981680;28;20193;-80
2023/03/19 13:23:29;;;;;;;3.47;1.73;;;;;;;;;;4974947;28;20241;-80
2023/03/19 13:25:56;;;;;;;2.73;2.00;;;;;;;;;;4972121;28;20216;-80
2023/03/19 13:28:26;;;;;;;1.90;1.70;;;;;;;;;;4971980;28;20184;-80
2023/03/19 13:30:58;;;;;;;3.60;2.20;;;;;;;;;;4972207;28;20177;-81
2023/03/19 13:33:27;;;;;;;6.57;2.63;;;;;;;;;;4972654;28;20185;-80
2023/03/19 13:35:54;;;;;;;3.90;1.87;;;;;;;;;;4970710;28;20199;-80
2023/03/19 13:38:27;;;;;;;2.30;2.07;;;;;;;;;;4969290;28;20185;-80
2023/03/19 13:40:53;;;;;;;3.37;2.23;;;;;;;;;;4970470;28;20181;-81
2023/03/19 13:43:27;;;;;;;2.17;1.60;;;;;;;;;;4969583;28;20226;-81
2023/03/19 13:46:02;;;;;;;5.33;2.27;;;;;;;;;;4970838;28;20180;-80
2023/03/19 13:48:27;;;;;;;2.70;1.50;;;;;;;;;;4970928;28;20186;-80
2023/03/19 13:51:00;;;;;;;2.87;1.80;;;;;;;;;;4971580;28;20238;-81
2023/03/19 13:53:32;;;;;;;3.23;1.70;;;;;;;;;;4969577;28;20181;-81
2023/03/19 13:55:58;;;;;;;2.33;2.00;;;;;;;;;;4972427;28;20219;-81
2023/03/19 14:01:31;;;;;;;1.73;1.63;;;;;;;;;;4970486;28;20212;-81
2023/03/19 14:04:02;;;;;;;4.37;2.30;;;;;;;;;;4971621;28;20211;-80
2023/03/19 14:06:42;;;;;;;2.37;1.73;;;;;;;;;;4969453;28;20209;-80
2023/03/19 14:09:27;;;;;;;4.03;2.83;;;;;;;;;;4986912;28;20231;-81
2023/03/19 14:11:53;;;;;;;3.60;1.90;;;;;;;;;;4973470;28;20183;-81
2023/03/19 14:14:19;;;;;;;3.03;1.63;;;;;;;;;;4972982;28;20192;-81
2023/03/19 14:16:47;;;;;;;2.83;2.10;;;;;;;;;;4969595;28;20201;-81
2023/03/19 14:19:16;;;;;;;2.53;1.70;;;;;;;;;;4983628;28;20271;-80
2023/03/19 14:22:01;;;;;;;2.40;1.73;;;;;;;;;;4973582;28;20263;-80
2023/03/19 14:24:39;;;;;;;2.33;2.13;;;;;;;;;;4971443;28;20177;-80
2023/03/19 14:27:24;;;;;;;2.23;2.00;;;;;;;;;;4965151;28;20187;-80
2023/03/19 14:29:49;;;;;;;2.67;1.90;;;;;;;;;;4967934;28;20188;-80
2023/03/19 14:32:16;;;;;;;3.87;2.60;;;;;;;;;;4972387;28;20207;-80
2023/03/19 14:34:42;;;;;;;2.33;2.00;;;;;;;;;;4969524;28;20331;-80
2023/03/19 14:37:07;;;;;;;3.97;1.90;;;;;;;;;;4973995;28;20313;-80
2023/03/19 14:39:40;;;;;;;3.47;1.63;;;;;;;;;;4963286;28;20183;-80
2023/03/19 14:42:24;;;;;;;4.43;2.03;;;;;;;;;;4990034;28;20207;-80
2023/03/19 14:45:08;;;;;;;6.53;2.00;;;;;;;;;;4984370;28;20272;-80
2023/03/19 14:47:53;;;;;;;3.20;1.80;;;;;;;;;;4983217;28;20176;-80
2023/03/19 14:50:24;;;;;;;2.93;1.77;;;;;;;;;;4968463;28;20189;-80